sensor_id;sensor_type;location;lat;lon;timestamp;temperature;humidity
54461;DHT22;40371;49.414;11.010;2022-07-06T00:00:31;20.70;75.90
54461;DHT22;40371;49.414;11.010;2022-07-06T00:02:57;20.70;75.80
54461;DHT22;40371;49.414;11.010;2022-07-06T00:05:22;20.70;76.00
54461;DHT22;40371;49.414;11.010;2022-07-06T00:07:48;20.60;76.20
54461;DHT22;40371;49.414;11.010;2022-07-06T00:10:14;20.50;76.50
54461;DHT22;40371;49.414;11.010;2022-07-06T00:12:39;20.50;76.70
54461;DHT22;40371;49.414;11.010;2022-07-06T00:15:05;20.50;76.90
54461;DHT22;40371;49.414;11.010;2022-07-06T00:17:31;20.40;77.30
54461;DHT22;40371;49.414;11.010;2022-07-06T00:19:56;20.40;77.20
54461;DHT22;40371;49.414;11.010;2022-07-06T00:22:22;20.40;77.50
54461;DHT22;40371;49.414;11.010;2022-07-06T00:24:47;20.40;77.50
54461;DHT22;40371;49.414;11.010;2022-07-06T00:27:13;20.30;77.90
54461;DHT22;40371;49.414;11.010;2022-07-06T00:29:39;20.30;78.00
54461;DHT22;40371;49.414;11.010;2022-07-06T00:32:10;20.20;78.10
54461;DHT22;40371;49.414;11.010;2022-07-06T00:34:36;20.30;78.40
54461;DHT22;40371;49.414;11.010;2022-07-06T00:37:02;20.20;78.70
54461;DHT22;40371;49.414;11.010;2022-07-06T00:39:28;20.10;78.80
54461;DHT22;40371;49.414;11.010;2022-07-06T00:41:55;20.10;79.00
54461;DHT22;40371;49.414;11.010;2022-07-06T00:44:21;20.00;79.10
54461;DHT22;40371;49.414;11.010;2022-07-06T00:46:47;20.00;79.50
54461;DHT22;40371;49.414;11.010;2022-07-06T00:49:12;19.90;79.80
54461;DHT22;40371;49.414;11.010;2022-07-06T00:51:58;19.90;79.80
54461;DHT22;40371;49.414;11.010;2022-07-06T00:54:25;19.80;80.10
54461;DHT22;40371;49.414;11.010;2022-07-06T00:56:51;19.80;80.50
54461;DHT22;40371;49.414;11.010;2022-07-06T00:59:17;19.70;80.60
54461;DHT22;40371;49.414;11.010;2022-07-06T01:01:43;19.70;80.60
54461;DHT22;40371;49.414;11.010;2022-07-06T01:04:09;19.70;80.60
54461;DHT22;40371;49.414;11.010;2022-07-06T01:06:35;19.80;80.70
54461;DHT22;40371;49.414;11.010;2022-07-06T01:09:01;19.70;80.80
54461;DHT22;40371;49.414;11.010;2022-07-06T01:11:27;19.70;80.90
54461;DHT22;40371;49.414;11.010;2022-07-06T01:13:53;19.70;81.20
54461;DHT22;40371;49.414;11.010;2022-07-06T01:16:20;19.60;81.20
54461;DHT22;40371;49.414;11.010;2022-07-06T01:18:46;19.60;81.40
54461;DHT22;40371;49.414;11.010;2022-07-06T01:21:14;19.60;81.80
54461;DHT22;40371;49.414;11.010;2022-07-06T01:23:44;19.60;82.10
54461;DHT22;40371;49.414;11.010;2022-07-06T01:26:18;19.50;81.80
54461;DHT22;40371;49.414;11.010;2022-07-06T01:28:45;19.50;82.20
54461;DHT22;40371;49.414;11.010;2022-07-06T01:31:15;19.50;82.50
54461;DHT22;40371;49.414;11.010;2022-07-06T01:33:42;19.50;82.40
54461;DHT22;40371;49.414;11.010;2022-07-06T01:36:08;19.40;83.10
54461;DHT22;40371;49.414;11.010;2022-07-06T01:38:46;19.40;82.90
54461;DHT22;40371;49.414;11.010;2022-07-06T01:41:13;19.40;83.60
54461;DHT22;40371;49.414;11.010;2022-07-06T01:43:38;19.40;83.50
54461;DHT22;40371;49.414;11.010;2022-07-06T01:46:04;19.40;83.60
54461;DHT22;40371;49.414;11.010;2022-07-06T01:48:30;19.40;84.00
54461;DHT22;40371;49.414;11.010;2022-07-06T01:50:56;19.40;84.10
54461;DHT22;40371;49.414;11.010;2022-07-06T01:53:22;19.30;84.30
54461;DHT22;40371;49.414;11.010;2022-07-06T01:55:47;19.30;84.50
54461;DHT22;40371;49.414;11.010;2022-07-06T01:58:13;19.40;84.60
54461;DHT22;40371;49.414;11.010;2022-07-06T02:00:38;19.30;84.60
54461;DHT22;40371;49.414;11.010;2022-07-06T02:03:04;19.30;85.00
54461;DHT22;40371;49.414;11.010;2022-07-06T02:05:30;19.30;84.70
54461;DHT22;40371;49.414;11.010;2022-07-06T02:07:55;19.30;84.70
54461;DHT22;40371;49.414;11.010;2022-07-06T02:10:21;19.20;85.20
54461;DHT22;40371;49.414;11.010;2022-07-06T02:12:47;19.20;85.20
54461;DHT22;40371;49.414;11.010;2022-07-06T02:15:13;19.20;85.40
54461;DHT22;40371;49.414;11.010;2022-07-06T02:17:39;19.10;85.90
54461;DHT22;40371;49.414;11.010;2022-07-06T02:20:06;19.10;85.90
54461;DHT22;40371;49.414;11.010;2022-07-06T02:22:32;19.00;86.10
54461;DHT22;40371;49.414;11.010;2022-07-06T02:24:57;19.00;87.10
54461;DHT22;40371;49.414;11.010;2022-07-06T02:27:23;19.10;86.40
54461;DHT22;40371;49.414;11.010;2022-07-06T02:29:51;19.00;86.40
54461;DHT22;40371;49.414;11.010;2022-07-06T02:32:16;19.10;86.80
54461;DHT22;40371;49.414;11.010;2022-07-06T02:34:43;19.10;86.50
54461;DHT22;40371;49.414;11.010;2022-07-06T02:37:09;19.10;86.70
54461;DHT22;40371;49.414;11.010;2022-07-06T02:39:35;19.00;86.60
54461;DHT22;40371;49.414;11.010;2022-07-06T02:42:02;19.00;86.90
54461;DHT22;40371;49.414;11.010;2022-07-06T02:44:28;19.00;86.90
54461;DHT22;40371;49.414;11.010;2022-07-06T02:46:54;19.00;87.00
54461;DHT22;40371;49.414;11.010;2022-07-06T02:49:19;19.00;87.30
54461;DHT22;40371;49.414;11.010;2022-07-06T02:51:46;18.90;87.30
54461;DHT22;40371;49.414;11.010;2022-07-06T02:54:11;18.90;87.30
54461;DHT22;40371;49.414;11.010;2022-07-06T02:56:37;18.90;87.30
54461;DHT22;40371;49.414;11.010;2022-07-06T02:59:03;18.90;87.30
54461;DHT22;40371;49.414;11.010;2022-07-06T03:01:29;18.90;87.40
54461;DHT22;40371;49.414;11.010;2022-07-06T03:03:54;18.90;87.80
54461;DHT22;40371;49.414;11.010;2022-07-06T03:06:20;18.80;88.00
54461;DHT22;40371;49.414;11.010;2022-07-06T03:08:46;18.80;88.40
54461;DHT22;40371;49.414;11.010;2022-07-06T03:11:11;18.70;88.80
54461;DHT22;40371;49.414;11.010;2022-07-06T03:13:37;18.70;89.00
54461;DHT22;40371;49.414;11.010;2022-07-06T03:16:03;18.70;89.00
54461;DHT22;40371;49.414;11.010;2022-07-06T03:18:30;18.60;89.20
54461;DHT22;40371;49.414;11.010;2022-07-06T03:20:56;18.60;89.70
54461;DHT22;40371;49.414;11.010;2022-07-06T03:23:22;18.50;89.70
54461;DHT22;40371;49.414;11.010;2022-07-06T03:25:48;18.60;90.10
54461;DHT22;40371;49.414;11.010;2022-07-06T03:28:14;18.60;89.50
54461;DHT22;40371;49.414;11.010;2022-07-06T03:30:40;18.60;89.70
54461;DHT22;40371;49.414;11.010;2022-07-06T03:33:06;18.60;89.90
54461;DHT22;40371;49.414;11.010;2022-07-06T03:35:32;18.60;89.70
54461;DHT22;40371;49.414;11.010;2022-07-06T03:38:00;18.50;90.00
54461;DHT22;40371;49.414;11.010;2022-07-06T03:40:29;18.50;90.10
54461;DHT22;40371;49.414;11.010;2022-07-06T03:42:54;18.50;90.10
54461;DHT22;40371;49.414;11.010;2022-07-06T03:45:20;18.50;90.00
54461;DHT22;40371;49.414;11.010;2022-07-06T03:47:47;18.50;90.00
54461;DHT22;40371;49.414;11.010;2022-07-06T03:50:13;18.60;90.10
54461;DHT22;40371;49.414;11.010;2022-07-06T03:52:39;18.60;90.00
54461;DHT22;40371;49.414;11.010;2022-07-06T03:55:10;18.70;90.00
54461;DHT22;40371;49.414;11.010;2022-07-06T03:57:37;18.70;90.00
54461;DHT22;40371;49.414;11.010;2022-07-06T04:00:05;18.70;90.10
54461;DHT22;40371;49.414;11.010;2022-07-06T04:02:40;18.80;90.20
54461;DHT22;40371;49.414;11.010;2022-07-06T04:05:06;18.70;90.20
54461;DHT22;40371;49.414;11.010;2022-07-06T04:07:32;18.70;90.20
54461;DHT22;40371;49.414;11.010;2022-07-06T04:09:58;18.70;90.20
54461;DHT22;40371;49.414;11.010;2022-07-06T04:12:24;18.70;90.30
54461;DHT22;40371;49.414;11.010;2022-07-06T04:14:49;18.70;90.30
54461;DHT22;40371;49.414;11.010;2022-07-06T04:17:15;18.80;90.10
54461;DHT22;40371;49.414;11.010;2022-07-06T04:20:00;18.80;90.10
54461;DHT22;40371;49.414;11.010;2022-07-06T04:22:26;18.80;90.20
54461;DHT22;40371;49.414;11.010;2022-07-06T04:24:52;18.80;90.20
54461;DHT22;40371;49.414;11.010;2022-07-06T04:27:17;18.90;90.20
54461;DHT22;40371;49.414;11.010;2022-07-06T04:29:43;18.90;90.10
54461;DHT22;40371;49.414;11.010;2022-07-06T04:32:09;18.90;90.20
54461;DHT22;40371;49.414;11.010;2022-07-06T04:34:34;18.80;90.30
54461;DHT22;40371;49.414;11.010;2022-07-06T04:37:00;18.90;90.30
54461;DHT22;40371;49.414;11.010;2022-07-06T04:39:26;18.90;90.20
54461;DHT22;40371;49.414;11.010;2022-07-06T04:41:53;19.00;90.20
54461;DHT22;40371;49.414;11.010;2022-07-06T04:44:19;19.10;90.30
54461;DHT22;40371;49.414;11.010;2022-07-06T04:46:44;19.20;90.30
54461;DHT22;40371;49.414;11.010;2022-07-06T04:49:10;19.30;90.20
54461;DHT22;40371;49.414;11.010;2022-07-06T04:51:36;19.20;90.20
54461;DHT22;40371;49.414;11.010;2022-07-06T04:54:04;19.30;90.20
54461;DHT22;40371;49.414;11.010;2022-07-06T04:56:31;19.30;90.10
54461;DHT22;40371;49.414;11.010;2022-07-06T04:58:57;19.20;90.10
54461;DHT22;40371;49.414;11.010;2022-07-06T05:01:24;19.30;90.10
54461;DHT22;40371;49.414;11.010;2022-07-06T05:03:49;19.30;90.00
54461;DHT22;40371;49.414;11.010;2022-07-06T05:06:18;19.20;90.10
54461;DHT22;40371;49.414;11.010;2022-07-06T05:08:45;19.20;90.20
54461;DHT22;40371;49.414;11.010;2022-07-06T05:11:11;19.30;90.20
54461;DHT22;40371;49.414;11.010;2022-07-06T05:13:37;19.30;90.30
54461;DHT22;40371;49.414;11.010;2022-07-06T05:16:04;19.30;90.30
54461;DHT22;40371;49.414;11.010;2022-07-06T05:18:30;19.40;90.30
54461;DHT22;40371;49.414;11.010;2022-07-06T05:20:57;19.50;90.10
54461;DHT22;40371;49.414;11.010;2022-07-06T05:23:22;19.50;90.30
54461;DHT22;40371;49.414;11.010;2022-07-06T05:25:48;19.60;89.80
54461;DHT22;40371;49.414;11.010;2022-07-06T05:28:14;19.50;89.80
54461;DHT22;40371;49.414;11.010;2022-07-06T05:30:39;19.50;90.00
54461;DHT22;40371;49.414;11.010;2022-07-06T05:33:05;19.60;90.00
54461;DHT22;40371;49.414;11.010;2022-07-06T05:35:31;19.70;89.80
54461;DHT22;40371;49.414;11.010;2022-07-06T05:37:58;19.70;89.70
54461;DHT22;40371;49.414;11.010;2022-07-06T05:40:25;19.70;89.50
54461;DHT22;40371;49.414;11.010;2022-07-06T05:42:52;19.80;89.60
54461;DHT22;40371;49.414;11.010;2022-07-06T05:45:18;19.80;89.20
54461;DHT22;40371;49.414;11.010;2022-07-06T05:47:44;19.80;89.30
54461;DHT22;40371;49.414;11.010;2022-07-06T05:50:30;19.90;89.50
54461;DHT22;40371;49.414;11.010;2022-07-06T05:52:57;19.90;89.60
54461;DHT22;40371;49.414;11.010;2022-07-06T05:55:23;19.70;90.10
54461;DHT22;40371;49.414;11.010;2022-07-06T05:57:50;19.90;90.00
54461;DHT22;40371;49.414;11.010;2022-07-06T06:00:16;19.90;89.40
54461;DHT22;40371;49.414;11.010;2022-07-06T06:02:46;20.10;88.90
54461;DHT22;40371;49.414;11.010;2022-07-06T06:05:15;20.10;88.90
54461;DHT22;40371;49.414;11.010;2022-07-06T06:07:43;20.20;88.90
54461;DHT22;40371;49.414;11.010;2022-07-06T06:10:11;20.40;88.20
54461;DHT22;40371;49.414;11.010;2022-07-06T06:12:37;20.40;88.10
54461;DHT22;40371;49.414;11.010;2022-07-06T06:15:04;20.30;88.00
54461;DHT22;40371;49.414;11.010;2022-07-06T06:17:30;20.30;87.80
54461;DHT22;40371;49.414;11.010;2022-07-06T06:19:55;20.30;88.20
54461;DHT22;40371;49.414;11.010;2022-07-06T06:22:21;20.40;88.20
54461;DHT22;40371;49.414;11.010;2022-07-06T06:24:47;20.50;87.10
54461;DHT22;40371;49.414;11.010;2022-07-06T06:27:13;20.60;87.20
54461;DHT22;40371;49.414;11.010;2022-07-06T06:29:38;20.70;86.70
54461;DHT22;40371;49.414;11.010;2022-07-06T06:32:04;20.90;86.40
54461;DHT22;40371;49.414;11.010;2022-07-06T06:34:31;21.00;86.50
54461;DHT22;40371;49.414;11.010;2022-07-06T06:36:57;21.00;86.30
54461;DHT22;40371;49.414;11.010;2022-07-06T06:39:23;20.90;86.40
54461;DHT22;40371;49.414;11.010;2022-07-06T06:41:49;20.80;86.30
54461;DHT22;40371;49.414;11.010;2022-07-06T06:44:14;21.00;85.40
54461;DHT22;40371;49.414;11.010;2022-07-06T06:46:40;21.20;85.20
54461;DHT22;40371;49.414;11.010;2022-07-06T06:49:06;21.30;84.80
54461;DHT22;40371;49.414;11.010;2022-07-06T06:51:33;21.40;85.00
54461;DHT22;40371;49.414;11.010;2022-07-06T06:53:58;21.50;85.30
54461;DHT22;40371;49.414;11.010;2022-07-06T06:56:24;21.60;84.80
54461;DHT22;40371;49.414;11.010;2022-07-06T06:58:49;21.80;84.60
54461;DHT22;40371;49.414;11.010;2022-07-06T07:01:15;21.90;83.60
54461;DHT22;40371;49.414;11.010;2022-07-06T07:03:41;21.90;83.60
54461;DHT22;40371;49.414;11.010;2022-07-06T07:06:06;22.00;83.50
54461;DHT22;40371;49.414;11.010;2022-07-06T07:08:32;22.00;83.10
54461;DHT22;40371;49.414;11.010;2022-07-06T07:10:58;22.00;83.00
54461;DHT22;40371;49.414;11.010;2022-07-06T07:13:24;22.00;82.90
54461;DHT22;40371;49.414;11.010;2022-07-06T07:15:50;22.00;82.70
54461;DHT22;40371;49.414;11.010;2022-07-06T07:18:15;22.20;82.30
54461;DHT22;40371;49.414;11.010;2022-07-06T07:20:41;22.30;81.90
54461;DHT22;40371;49.414;11.010;2022-07-06T07:23:07;22.30;81.50
54461;DHT22;40371;49.414;11.010;2022-07-06T07:25:33;22.40;81.30
54461;DHT22;40371;49.414;11.010;2022-07-06T07:28:00;22.60;81.40
54461;DHT22;40371;49.414;11.010;2022-07-06T07:30:26;22.90;79.50
54461;DHT22;40371;49.414;11.010;2022-07-06T07:32:55;22.90;79.30
54461;DHT22;40371;49.414;11.010;2022-07-06T07:35:22;23.10;79.60
54461;DHT22;40371;49.414;11.010;2022-07-06T07:37:47;23.00;79.40
54461;DHT22;40371;49.414;11.010;2022-07-06T07:40:13;23.00;79.10
54461;DHT22;40371;49.414;11.010;2022-07-06T07:42:39;23.00;78.60
54461;DHT22;40371;49.414;11.010;2022-07-06T07:45:07;23.30;78.60
54461;DHT22;40371;49.414;11.010;2022-07-06T07:47:33;23.40;77.30
54461;DHT22;40371;49.414;11.010;2022-07-06T07:49:58;23.60;77.50
54461;DHT22;40371;49.414;11.010;2022-07-06T07:52:24;23.70;77.00
54461;DHT22;40371;49.414;11.010;2022-07-06T07:54:50;24.10;76.80
54461;DHT22;40371;49.414;11.010;2022-07-06T07:57:15;24.00;76.00
54461;DHT22;40371;49.414;11.010;2022-07-06T07:59:41;24.20;75.60
54461;DHT22;40371;49.414;11.010;2022-07-06T08:02:07;24.20;75.30
54461;DHT22;40371;49.414;11.010;2022-07-06T08:04:33;24.40;75.20
54461;DHT22;40371;49.414;11.010;2022-07-06T08:06:58;24.50;75.30
54461;DHT22;40371;49.414;11.010;2022-07-06T08:09:24;24.80;75.20
54461;DHT22;40371;49.414;11.010;2022-07-06T08:11:50;25.00;73.40
54461;DHT22;40371;49.414;11.010;2022-07-06T08:14:15;25.10;73.20
54461;DHT22;40371;49.414;11.010;2022-07-06T08:16:42;25.10;72.90
54461;DHT22;40371;49.414;11.010;2022-07-06T08:19:08;25.30;72.30
54461;DHT22;40371;49.414;11.010;2022-07-06T08:21:34;25.40;72.10
54461;DHT22;40371;49.414;11.010;2022-07-06T08:24:01;25.70;71.20
54461;DHT22;40371;49.414;11.010;2022-07-06T08:26:27;25.60;70.60
54461;DHT22;40371;49.414;11.010;2022-07-06T08:28:53;25.80;70.20
54461;DHT22;40371;49.414;11.010;2022-07-06T08:31:19;26.00;68.60
54461;DHT22;40371;49.414;11.010;2022-07-06T08:33:45;26.20;68.20
54461;DHT22;40371;49.414;11.010;2022-07-06T08:36:10;26.40;67.60
54461;DHT22;40371;49.414;11.010;2022-07-06T08:38:36;26.60;67.20
54461;DHT22;40371;49.414;11.010;2022-07-06T08:41:02;26.80;67.70
54461;DHT22;40371;49.414;11.010;2022-07-06T08:43:32;26.80;65.10
54461;DHT22;40371;49.414;11.010;2022-07-06T08:45:58;26.70;66.30
54461;DHT22;40371;49.414;11.010;2022-07-06T08:48:24;27.30;66.30
54461;DHT22;40371;49.414;11.010;2022-07-06T08:50:51;27.60;65.00
54461;DHT22;40371;49.414;11.010;2022-07-06T08:53:19;27.50;64.10
54461;DHT22;40371;49.414;11.010;2022-07-06T08:55:46;27.70;64.10
54461;DHT22;40371;49.414;11.010;2022-07-06T08:58:13;27.90;63.60
54461;DHT22;40371;49.414;11.010;2022-07-06T09:00:39;28.00;63.10
54461;DHT22;40371;49.414;11.010;2022-07-06T09:03:06;28.00;62.80
54461;DHT22;40371;49.414;11.010;2022-07-06T09:05:32;28.10;62.80
54461;DHT22;40371;49.414;11.010;2022-07-06T09:07:59;28.20;62.30
54461;DHT22;40371;49.414;11.010;2022-07-06T09:10:25;28.50;61.90
54461;DHT22;40371;49.414;11.010;2022-07-06T09:12:51;28.70;61.40
54461;DHT22;40371;49.414;11.010;2022-07-06T09:15:17;28.90;60.60
54461;DHT22;40371;49.414;11.010;2022-07-06T09:17:43;29.30;60.30
54461;DHT22;40371;49.414;11.010;2022-07-06T09:20:13;29.40;60.20
54461;DHT22;40371;49.414;11.010;2022-07-06T09:22:39;28.70;61.10
54461;DHT22;40371;49.414;11.010;2022-07-06T09:25:13;28.80;61.60
54461;DHT22;40371;49.414;11.010;2022-07-06T09:27:48;28.30;62.10
54461;DHT22;40371;49.414;11.010;2022-07-06T09:30:16;27.80;62.80
54461;DHT22;40371;49.414;11.010;2022-07-06T09:32:47;28.00;62.80
54461;DHT22;40371;49.414;11.010;2022-07-06T09:35:26;28.30;62.40
54461;DHT22;40371;49.414;11.010;2022-07-06T09:38:04;28.90;61.20
54461;DHT22;40371;49.414;11.010;2022-07-06T09:40:32;28.80;61.20
54461;DHT22;40371;49.414;11.010;2022-07-06T09:43:21;27.90;61.50
54461;DHT22;40371;49.414;11.010;2022-07-06T09:45:55;27.50;63.50
54461;DHT22;40371;49.414;11.010;2022-07-06T09:48:25;29.90;61.40
54461;DHT22;40371;49.414;11.010;2022-07-06T09:51:00;29.60;60.90
54461;DHT22;40371;49.414;11.010;2022-07-06T09:53:29;29.60;59.80
54461;DHT22;40371;49.414;11.010;2022-07-06T09:55:56;30.20;59.20
54461;DHT22;40371;49.414;11.010;2022-07-06T09:58:24;32.90;57.50
54461;DHT22;40371;49.414;11.010;2022-07-06T10:00:50;33.30;55.50
54461;DHT22;40371;49.414;11.010;2022-07-06T10:03:17;32.90;54.10
54461;DHT22;40371;49.414;11.010;2022-07-06T10:05:47;30.00;57.30
54461;DHT22;40371;49.414;11.010;2022-07-06T10:08:15;30.10;59.10
54461;DHT22;40371;49.414;11.010;2022-07-06T10:10:42;33.50;56.50
54461;DHT22;40371;49.414;11.010;2022-07-06T10:13:08;35.30;53.70
54461;DHT22;40371;49.414;11.010;2022-07-06T10:15:37;33.70;52.20
54461;DHT22;40371;49.414;11.010;2022-07-06T10:18:05;30.40;56.40
54461;DHT22;40371;49.414;11.010;2022-07-06T10:20:33;31.00;55.80
54461;DHT22;40371;49.414;11.010;2022-07-06T10:23:03;34.10;54.20
54461;DHT22;40371;49.414;11.010;2022-07-06T10:25:29;33.40;52.80
54461;DHT22;40371;49.414;11.010;2022-07-06T10:27:56;31.20;54.00
54461;DHT22;40371;49.414;11.010;2022-07-06T10:30:22;31.30;57.20
54461;DHT22;40371;49.414;11.010;2022-07-06T10:32:50;34.50;54.00
54461;DHT22;40371;49.414;11.010;2022-07-06T10:35:18;33.90;51.90
54461;DHT22;40371;49.414;11.010;2022-07-06T10:37:45;34.50;51.70
54461;DHT22;40371;49.414;11.010;2022-07-06T10:40:16;34.40;51.90
54461;DHT22;40371;49.414;11.010;2022-07-06T10:43:02;33.30;53.20
54461;DHT22;40371;49.414;11.010;2022-07-06T10:50:40;31.80;53.70
54461;DHT22;40371;49.414;11.010;2022-07-06T10:53:21;32.70;53.20
54461;DHT22;40371;49.414;11.010;2022-07-06T10:55:48;31.80;53.10
54461;DHT22;40371;49.414;11.010;2022-07-06T11:01:00;31.40;53.40
54461;DHT22;40371;49.414;11.010;2022-07-06T11:06:26;30.30;54.60
54461;DHT22;40371;49.414;11.010;2022-07-06T11:11:23;34.70;51.00
54461;DHT22;40371;49.414;11.010;2022-07-06T11:13:54;36.20;48.80
54461;DHT22;40371;49.414;11.010;2022-07-06T11:16:23;37.50;48.70
54461;DHT22;40371;49.414;11.010;2022-07-06T11:21:45;33.30;51.00
54461;DHT22;40371;49.414;11.010;2022-07-06T11:24:15;32.60;51.90
54461;DHT22;40371;49.414;11.010;2022-07-06T11:26:42;31.50;52.80
54461;DHT22;40371;49.414;11.010;2022-07-06T11:29:09;30.80;53.50
54461;DHT22;40371;49.414;11.010;2022-07-06T11:31:38;29.50;54.40
54461;DHT22;40371;49.414;11.010;2022-07-06T11:34:05;29.70;54.90
54461;DHT22;40371;49.414;11.010;2022-07-06T11:36:31;29.30;56.00
54461;DHT22;40371;49.414;11.010;2022-07-06T11:38:57;28.60;57.20
54461;DHT22;40371;49.414;11.010;2022-07-06T11:41:23;30.00;56.50
54461;DHT22;40371;49.414;11.010;2022-07-06T11:43:49;31.50;54.90
54461;DHT22;40371;49.414;11.010;2022-07-06T11:46:24;33.30;52.90
54461;DHT22;40371;49.414;11.010;2022-07-06T11:48:55;35.20;50.20
54461;DHT22;40371;49.414;11.010;2022-07-06T11:51:22;36.00;49.00
54461;DHT22;40371;49.414;11.010;2022-07-06T11:53:51;34.70;49.30
54461;DHT22;40371;49.414;11.010;2022-07-06T11:56:17;31.50;50.90
54461;DHT22;40371;49.414;11.010;2022-07-06T11:58:48;30.50;53.00
54461;DHT22;40371;49.414;11.010;2022-07-06T12:01:14;30.70;53.50
54461;DHT22;40371;49.414;11.010;2022-07-06T12:03:41;31.00;51.00
54461;DHT22;40371;49.414;11.010;2022-07-06T12:06:13;31.00;50.90
54461;DHT22;40371;49.414;11.010;2022-07-06T12:08:50;31.10;49.60
54461;DHT22;40371;49.414;11.010;2022-07-06T12:11:23;30.80;51.50
54461;DHT22;40371;49.414;11.010;2022-07-06T12:13:54;30.90;52.20
54461;DHT22;40371;49.414;11.010;2022-07-06T12:16:21;30.00;53.50
54461;DHT22;40371;49.414;11.010;2022-07-06T12:18:49;30.30;53.80
54461;DHT22;40371;49.414;11.010;2022-07-06T12:21:18;30.50;53.60
54461;DHT22;40371;49.414;11.010;2022-07-06T12:23:46;31.10;52.70
54461;DHT22;40371;49.414;11.010;2022-07-06T12:26:14;31.00;52.00
54461;DHT22;40371;49.414;11.010;2022-07-06T12:28:40;31.20;51.70
54461;DHT22;40371;49.414;11.010;2022-07-06T12:31:06;31.00;51.50
54461;DHT22;40371;49.414;11.010;2022-07-06T12:33:32;30.20;52.30
54461;DHT22;40371;49.414;11.010;2022-07-06T12:36:11;30.40;52.30
54461;DHT22;40371;49.414;11.010;2022-07-06T12:38:44;29.70;53.20
54461;DHT22;40371;49.414;11.010;2022-07-06T12:41:11;29.30;53.70
54461;DHT22;40371;49.414;11.010;2022-07-06T12:43:40;29.60;53.80
54461;DHT22;40371;49.414;11.010;2022-07-06T12:49:02;30.20;53.80
54461;DHT22;40371;49.414;11.010;2022-07-06T12:51:28;30.40;53.90
54461;DHT22;40371;49.414;11.010;2022-07-06T12:54:13;30.60;53.70
54461;DHT22;40371;49.414;11.010;2022-07-06T12:56:56;30.70;53.30
54461;DHT22;40371;49.414;11.010;2022-07-06T12:59:22;31.00;53.40
54461;DHT22;40371;49.414;11.010;2022-07-06T13:01:48;30.50;52.80
54461;DHT22;40371;49.414;11.010;2022-07-06T13:04:16;30.00;52.80
54461;DHT22;40371;49.414;11.010;2022-07-06T13:06:41;29.90;53.10
54461;DHT22;40371;49.414;11.010;2022-07-06T13:09:07;30.10;53.10
54461;DHT22;40371;49.414;11.010;2022-07-06T13:11:33;29.70;53.20
54461;DHT22;40371;49.414;11.010;2022-07-06T13:13:59;29.40;54.60
54461;DHT22;40371;49.414;11.010;2022-07-06T13:16:25;28.90;54.60
54461;DHT22;40371;49.414;11.010;2022-07-06T13:18:56;28.90;54.50
54461;DHT22;40371;49.414;11.010;2022-07-06T13:21:21;28.80;55.90
54461;DHT22;40371;49.414;11.010;2022-07-06T13:23:47;29.10;55.30
54461;DHT22;40371;49.414;11.010;2022-07-06T13:26:13;28.80;55.50
54461;DHT22;40371;49.414;11.010;2022-07-06T13:28:39;28.70;55.80
54461;DHT22;40371;49.414;11.010;2022-07-06T13:31:04;28.50;55.70
54461;DHT22;40371;49.414;11.010;2022-07-06T13:33:30;28.20;56.10
54461;DHT22;40371;49.414;11.010;2022-07-06T13:35:56;28.80;55.20
54461;DHT22;40371;49.414;11.010;2022-07-06T13:38:21;28.50;55.10
54461;DHT22;40371;49.414;11.010;2022-07-06T13:40:47;28.40;55.40
54461;DHT22;40371;49.414;11.010;2022-07-06T13:43:12;28.60;55.40
54461;DHT22;40371;49.414;11.010;2022-07-06T13:45:38;28.70;55.30
54461;DHT22;40371;49.414;11.010;2022-07-06T13:48:03;28.50;55.10
54461;DHT22;40371;49.414;11.010;2022-07-06T13:50:29;28.60;55.00
54461;DHT22;40371;49.414;11.010;2022-07-06T13:52:58;28.20;55.70
54461;DHT22;40371;49.414;11.010;2022-07-06T13:55:23;28.30;55.60
54461;DHT22;40371;49.414;11.010;2022-07-06T13:57:49;28.40;55.70
54461;DHT22;40371;49.414;11.010;2022-07-06T14:00:15;28.40;56.00
54461;DHT22;40371;49.414;11.010;2022-07-06T14:02:44;28.40;55.80
54461;DHT22;40371;49.414;11.010;2022-07-06T14:05:10;28.40;56.10
54461;DHT22;40371;49.414;11.010;2022-07-06T14:07:36;28.60;55.60
54461;DHT22;40371;49.414;11.010;2022-07-06T14:10:02;28.40;55.20
54461;DHT22;40371;49.414;11.010;2022-07-06T14:12:27;28.40;55.50
54461;DHT22;40371;49.414;11.010;2022-07-06T14:14:53;28.10;55.30
54461;DHT22;40371;49.414;11.010;2022-07-06T14:17:19;27.90;55.70
54461;DHT22;40371;49.414;11.010;2022-07-06T14:19:44;27.90;56.10
54461;DHT22;40371;49.414;11.010;2022-07-06T14:22:10;27.60;55.90
54461;DHT22;40371;49.414;11.010;2022-07-06T14:24:35;27.80;56.10
54461;DHT22;40371;49.414;11.010;2022-07-06T14:27:01;27.90;56.10
54461;DHT22;40371;49.414;11.010;2022-07-06T14:29:27;27.90;55.50
54461;DHT22;40371;49.414;11.010;2022-07-06T14:31:52;27.70;55.00
54461;DHT22;40371;49.414;11.010;2022-07-06T14:34:18;27.60;55.80
54461;DHT22;40371;49.414;11.010;2022-07-06T14:36:43;27.70;55.50
54461;DHT22;40371;49.414;11.010;2022-07-06T14:39:09;27.60;55.50
54461;DHT22;40371;49.414;11.010;2022-07-06T14:41:40;27.70;55.50
54461;DHT22;40371;49.414;11.010;2022-07-06T14:44:06;27.60;55.40
54461;DHT22;40371;49.414;11.010;2022-07-06T14:46:32;27.40;55.90
54461;DHT22;40371;49.414;11.010;2022-07-06T14:49:00;27.40;56.00
54461;DHT22;40371;49.414;11.010;2022-07-06T14:51:26;27.40;56.60
54461;DHT22;40371;49.414;11.010;2022-07-06T14:53:51;27.40;56.40
54461;DHT22;40371;49.414;11.010;2022-07-06T14:56:17;27.30;57.10
54461;DHT22;40371;49.414;11.010;2022-07-06T14:58:42;27.20;56.20
54461;DHT22;40371;49.414;11.010;2022-07-06T15:01:08;27.10;56.70
54461;DHT22;40371;49.414;11.010;2022-07-06T15:03:34;26.80;56.90
54461;DHT22;40371;49.414;11.010;2022-07-06T15:05:59;26.60;57.00
54461;DHT22;40371;49.414;11.010;2022-07-06T15:08:25;26.70;57.00
54461;DHT22;40371;49.414;11.010;2022-07-06T15:10:51;26.60;56.50
54461;DHT22;40371;49.414;11.010;2022-07-06T15:13:16;26.40;57.10
54461;DHT22;40371;49.414;11.010;2022-07-06T15:15:42;26.40;57.20
54461;DHT22;40371;49.414;11.010;2022-07-06T15:18:08;26.50;57.40
54461;DHT22;40371;49.414;11.010;2022-07-06T15:20:33;26.60;56.80
54461;DHT22;40371;49.414;11.010;2022-07-06T15:22:59;26.60;57.10
54461;DHT22;40371;49.414;11.010;2022-07-06T15:25:25;26.60;57.40
54461;DHT22;40371;49.414;11.010;2022-07-06T15:27:51;26.60;56.70
54461;DHT22;40371;49.414;11.010;2022-07-06T15:30:16;26.70;57.40
54461;DHT22;40371;49.414;11.010;2022-07-06T15:32:42;26.60;57.10